createdAt,value
2023-05-24T00:00:35.673Z,3.83
2023-05-24T00:03:04.690Z,4.47
2023-05-24T00:05:31.945Z,3.93
2023-05-24T00:07:59.358Z,4.27
2023-05-24T00:10:26.412Z,4.70
2023-05-24T00:12:53.221Z,4.60
2023-05-24T00:15:20.086Z,4.20
2023-05-24T00:17:47.400Z,4.60
2023-05-24T00:20:14.508Z,4.87
2023-05-24T00:22:42.015Z,4.03
2023-05-24T00:25:09.183Z,4.60
2023-05-24T00:27:37.306Z,5.00
2023-05-24T00:30:05.642Z,4.70
2023-05-24T00:32:32.449Z,4.60
2023-05-24T00:34:59.330Z,5.30
2023-05-24T00:37:26.453Z,4.97
2023-05-24T00:39:53.200Z,5.20
2023-05-24T00:42:19.945Z,5.10
2023-05-24T00:44:46.722Z,4.30
2023-05-24T00:47:13.564Z,5.00
2023-05-24T00:49:40.893Z,4.53
2023-05-24T00:52:08.975Z,4.37
2023-05-24T00:54:35.949Z,5.00
2023-05-24T00:57:02.880Z,5.10
2023-05-24T00:59:29.916Z,5.20
2023-05-24T01:01:56.798Z,5.67
2023-05-24T01:04:23.723Z,5.60
2023-05-24T01:06:59.280Z,5.00
2023-05-24T01:09:45.644Z,5.63
2023-05-24T01:12:38.854Z,5.93
2023-05-24T01:15:28.256Z,6.47
2023-05-24T01:18:26.089Z,6.00
2023-05-24T01:21:18.956Z,5.70
2023-05-24T01:24:11.183Z,5.80
2023-05-24T01:26:44.378Z,6.60
2023-05-24T01:29:13.099Z,5.90
2023-05-24T01:31:40.002Z,6.00
2023-05-24T01:34:06.967Z,6.07
2023-05-24T01:36:33.670Z,6.80
2023-05-24T01:39:00.497Z,6.33
2023-05-24T01:41:59.722Z,6.17
2023-05-24T01:44:32.716Z,5.60
2023-05-24T01:47:11.940Z,6.53
2023-05-24T01:49:43.984Z,6.53
2023-05-24T01:52:17.075Z,6.43
2023-05-24T01:54:50.503Z,6.00
2023-05-24T01:57:19.825Z,5.37
2023-05-24T01:59:47.869Z,5.87
2023-05-24T02:02:15.045Z,6.50
2023-05-24T02:04:59.412Z,5.50
2023-05-24T02:07:26.798Z,5.50
2023-05-24T02:09:53.566Z,5.17
2023-05-24T02:12:20.371Z,5.10
2023-05-24T02:14:50.958Z,5.10
2023-05-24T02:17:18.660Z,5.57
2023-05-24T02:19:45.625Z,5.37
2023-05-24T02:22:13.016Z,4.80
2023-05-24T02:24:40.484Z,4.47
2023-05-24T02:27:07.274Z,4.83
2023-05-24T02:29:34.062Z,4.97
2023-05-24T02:32:00.823Z,5.00
2023-05-24T02:34:27.625Z,5.20
2023-05-24T02:36:54.401Z,4.07
2023-05-24T02:39:21.429Z,4.60
2023-05-24T02:41:48.227Z,5.07
2023-05-24T02:44:15.050Z,4.67
2023-05-24T02:46:41.891Z,5.37
2023-05-24T02:49:09.971Z,5.13
2023-05-24T02:51:39.720Z,5.27
2023-05-24T02:54:06.623Z,5.00
2023-05-24T02:56:34.747Z,5.63
2023-05-24T02:59:01.553Z,4.03
2023-05-24T03:01:28.335Z,4.90
2023-05-24T03:03:55.252Z,4.73
2023-05-24T03:06:22.104Z,4.43
2023-05-24T03:08:49.802Z,5.13
2023-05-24T03:11:16.825Z,6.27
2023-05-24T03:13:44.380Z,4.70
2023-05-24T03:16:11.244Z,4.30
2023-05-24T03:18:38.041Z,5.27
2023-05-24T03:21:05.090Z,5.80
2023-05-24T03:23:31.892Z,5.30
2023-05-24T03:25:58.866Z,5.57
2023-05-24T03:28:25.665Z,4.87
2023-05-24T03:30:52.440Z,6.43
2023-05-24T03:33:19.288Z,5.43
2023-05-24T03:35:46.211Z,4.60
2023-05-24T03:38:13.005Z,5.10
2023-05-24T03:40:39.792Z,5.83
2023-05-24T03:43:06.719Z,5.60
2023-05-24T03:45:39.109Z,5.57
2023-05-24T03:48:06.857Z,6.30
2023-05-24T03:50:33.634Z,5.57
2023-05-24T03:53:00.485Z,4.97
2023-05-24T03:55:27.272Z,5.37
2023-05-24T03:57:54.120Z,4.60
2023-05-24T04:00:21.190Z,5.37
2023-05-24T04:02:48.074Z,5.40
2023-05-24T04:05:14.864Z,5.30
2023-05-24T04:07:42.387Z,5.80
2023-05-24T04:10:09.433Z,5.50
2023-05-24T04:12:36.224Z,5.70
2023-05-24T04:15:03.266Z,5.63
2023-05-24T04:17:34.919Z,5.73
2023-05-24T04:20:02.192Z,7.03
2023-05-24T04:22:30.634Z,5.70
2023-05-24T04:24:57.418Z,6.80
2023-05-24T04:27:26.171Z,5.03
2023-05-24T04:29:54.436Z,5.00
2023-05-24T04:32:21.387Z,5.23
2023-05-24T04:34:48.147Z,5.53
2023-05-24T04:37:17.177Z,4.90
2023-05-24T04:39:45.295Z,4.97
2023-05-24T04:42:13.159Z,5.50
2023-05-24T04:44:43.147Z,6.13
2023-05-24T04:47:10.761Z,5.00
2023-05-24T04:49:37.833Z,5.87
2023-05-24T04:52:05.026Z,5.23
2023-05-24T04:54:32.198Z,5.13
2023-05-24T04:56:59.032Z,5.67
2023-05-24T04:59:25.794Z,5.13
2023-05-24T05:01:52.674Z,5.77
2023-05-24T05:04:19.546Z,5.57
2023-05-24T05:06:47.692Z,5.10
2023-05-24T05:09:15.913Z,5.90
2023-05-24T05:11:43.299Z,6.30
2023-05-24T05:14:10.518Z,5.97
2023-05-24T05:16:38.442Z,5.90
2023-05-24T05:19:06.060Z,4.53
2023-05-24T05:21:33.867Z,5.07
2023-05-24T05:24:01.445Z,5.97
2023-05-24T05:26:28.954Z,6.30
2023-05-24T05:28:56.663Z,5.27
2023-05-24T05:31:24.028Z,5.60
2023-05-24T05:33:51.156Z,6.60
2023-05-24T05:36:19.236Z,5.40
2023-05-24T05:38:46.610Z,7.07
2023-05-24T05:41:13.448Z,5.30
2023-05-24T05:43:40.520Z,6.47
2023-05-24T05:46:07.465Z,6.00
2023-05-24T05:48:34.306Z,5.00
2023-05-24T05:51:01.149Z,5.07
2023-05-24T05:53:27.925Z,5.27
2023-05-24T05:55:54.754Z,4.80
2023-05-24T05:58:21.563Z,5.50
2023-05-24T06:00:48.309Z,6.30
2023-05-24T06:03:15.404Z,6.10
2023-05-24T06:05:42.321Z,7.13
2023-05-24T06:08:09.099Z,5.60
2023-05-24T06:10:35.965Z,5.60
2023-05-24T06:13:04.350Z,6.50
2023-05-24T06:15:33.294Z,5.50
2023-05-24T06:18:02.286Z,5.70
2023-05-24T06:20:29.335Z,5.97
2023-05-24T06:22:57.186Z,6.37
2023-05-24T06:25:24.554Z,8.00
2023-05-24T06:27:51.898Z,6.57
2023-05-24T06:30:18.959Z,5.80
2023-05-24T06:32:46.078Z,6.33
2023-05-24T06:35:13.077Z,6.53
2023-05-24T06:37:39.998Z,6.00
2023-05-24T06:40:09.907Z,5.13
2023-05-24T06:42:37.193Z,6.20
2023-05-24T06:45:04.191Z,6.37
2023-05-24T06:47:31.071Z,5.90
2023-05-24T06:49:58.109Z,5.13
2023-05-24T06:52:24.819Z,6.37
2023-05-24T06:54:52.396Z,6.10
2023-05-24T06:57:19.139Z,5.57
2023-05-24T06:59:46.010Z,10.87
2023-05-24T07:02:12.825Z,6.47
2023-05-24T07:04:41.250Z,5.83
2023-05-24T07:07:09.112Z,8.43
2023-05-24T07:09:35.878Z,8.00
2023-05-24T07:12:02.766Z,5.43
2023-05-24T07:14:29.539Z,6.70
2023-05-24T07:16:59.738Z,7.63
2023-05-24T07:19:29.403Z,9.23
2023-05-24T07:21:56.901Z,5.80
2023-05-24T07:24:24.181Z,7.40
2023-05-24T07:26:52.623Z,5.30
2023-05-24T07:29:19.744Z,5.73
2023-05-24T07:31:46.593Z,6.43
2023-05-24T07:34:13.454Z,6.20
2023-05-24T07:36:42.265Z,5.57
2023-05-24T07:39:15.672Z,5.53
2023-05-24T07:41:42.565Z,5.77
2023-05-24T07:44:09.350Z,5.63
2023-05-24T07:46:36.100Z,6.40
2023-05-24T07:49:02.820Z,6.17
2023-05-24T07:51:29.576Z,6.30
2023-05-24T07:53:56.380Z,5.60
2023-05-24T07:56:23.833Z,5.93
2023-05-24T07:58:51.832Z,5.10
2023-05-24T08:01:19.232Z,4.80
2023-05-24T08:03:46.531Z,5.10
2023-05-24T08:06:13.545Z,5.33
2023-05-24T08:08:41.076Z,5.50
2023-05-24T08:11:10.837Z,5.40
2023-05-24T08:13:37.858Z,5.90
2023-05-24T08:16:04.655Z,5.40
2023-05-24T08:18:31.441Z,4.30
2023-05-24T08:20:58.244Z,7.47
2023-05-24T08:23:25.005Z,4.87
2023-05-24T08:25:51.915Z,5.97
2023-05-24T08:28:18.783Z,6.20
2023-05-24T08:30:45.683Z,6.77
2023-05-24T08:33:12.475Z,6.43
2023-05-24T08:35:39.381Z,6.30
2023-05-24T08:38:06.996Z,6.83
2023-05-24T08:40:33.807Z,5.57
2023-05-24T08:43:02.045Z,5.03
2023-05-24T08:45:36.787Z,6.10
2023-05-24T08:48:05.380Z,6.57
2023-05-24T08:50:33.226Z,5.40
2023-05-24T08:53:02.871Z,5.77
2023-05-24T08:55:33.454Z,6.20
2023-05-24T08:58:01.134Z,7.27
2023-05-24T09:00:28.012Z,6.90
2023-05-24T09:02:56.152Z,6.87
2023-05-24T09:05:23.795Z,5.53
2023-05-24T09:07:51.135Z,5.60
2023-05-24T09:10:21.480Z,5.83
2023-05-24T09:12:56.169Z,4.77
2023-05-24T09:15:23.151Z,5.90
2023-05-24T09:17:50.110Z,6.43
2023-05-24T09:20:17.806Z,4.60
2023-05-24T09:22:48.755Z,5.50
2023-05-24T09:25:15.753Z,5.70
2023-05-24T09:27:45.048Z,6.20
2023-05-24T09:30:14.993Z,5.70
2023-05-24T09:32:41.913Z,5.23
2023-05-24T09:35:12.668Z,5.17
2023-05-24T09:37:40.374Z,5.50
2023-05-24T09:40:12.008Z,4.53
2023-05-24T09:42:38.771Z,6.20
2023-05-24T09:45:11.982Z,8.00
2023-05-24T09:47:40.845Z,5.10
2023-05-24T09:50:13.811Z,5.77
2023-05-24T09:52:41.926Z,5.60
2023-05-24T09:55:16.331Z,5.00
2023-05-24T09:58:03.112Z,6.17
2023-05-24T10:00:31.001Z,5.90
2023-05-24T10:03:08.332Z,7.73
2023-05-24T10:05:37.133Z,6.00
2023-05-24T10:08:09.666Z,6.13
2023-05-24T10:10:36.620Z,5.07
2023-05-24T10:13:05.397Z,5.80
2023-05-24T10:15:32.382Z,5.87
2023-05-24T10:18:09.836Z,5.30
2023-05-24T10:20:42.105Z,6.47
2023-05-24T10:23:10.881Z,6.97
2023-05-24T10:25:44.766Z,5.73
2023-05-24T10:28:14.031Z,5.00
2023-05-24T10:31:01.633Z,6.40
2023-05-24T10:33:30.176Z,7.27
2023-05-24T10:35:57.457Z,7.13
2023-05-24T10:38:25.040Z,5.13
2023-05-24T10:40:52.128Z,4.60
2023-05-24T10:43:19.436Z,4.20
2023-05-24T10:45:49.978Z,5.27
2023-05-24T10:48:17.204Z,5.10
2023-05-24T10:50:44.887Z,5.03
2023-05-24T10:53:19.235Z,5.13
2023-05-24T10:55:57.776Z,4.90
2023-05-24T10:58:47.954Z,11.57
2023-05-24T11:01:34.951Z,5.70
2023-05-24T11:04:08.793Z,5.17
2023-05-24T11:06:57.049Z,5.30
2023-05-24T11:09:24.850Z,5.13
2023-05-24T11:11:56.228Z,5.13
2023-05-24T11:14:27.549Z,6.40
2023-05-24T11:16:55.229Z,6.03
2023-05-24T11:19:34.332Z,5.60
2023-05-24T11:22:04.880Z,6.37
2023-05-24T11:24:33.019Z,9.00
2023-05-24T11:27:02.423Z,8.10
2023-05-24T11:29:30.655Z,6.93
2023-05-24T11:32:01.389Z,9.10
2023-05-24T11:34:28.344Z,5.60
2023-05-24T11:36:55.572Z,6.10
2023-05-24T11:39:23.781Z,5.63
2023-05-24T11:41:50.856Z,5.53
2023-05-24T11:44:21.562Z,5.20
2023-05-24T11:46:48.530Z,5.07
2023-05-24T11:49:16.651Z,6.10
2023-05-24T11:51:43.947Z,5.90
2023-05-24T11:54:11.870Z,6.63
2023-05-24T11:56:38.827Z,5.47
2023-05-24T11:59:18.168Z,6.43
2023-05-24T12:01:45.101Z,5.77
2023-05-24T12:04:12.985Z,6.20
2023-05-24T12:06:42.026Z,6.13
2023-05-24T12:09:13.337Z,5.50
2023-05-24T12:11:42.150Z,6.33
2023-05-24T12:14:19.607Z,6.23
2023-05-24T12:16:47.261Z,5.50
2023-05-24T12:19:31.396Z,6.50
2023-05-24T12:21:59.810Z,6.70
2023-05-24T12:24:28.156Z,5.70
2023-05-24T12:27:03.193Z,6.90
2023-05-24T12:29:39.787Z,6.70
2023-05-24T12:32:12.293Z,6.30
2023-05-24T12:34:44.222Z,5.83
2023-05-24T12:37:13.014Z,6.67
2023-05-24T12:39:42.762Z,5.20
2023-05-24T12:42:12.158Z,6.77
2023-05-24T12:44:39.467Z,8.63
2023-05-24T12:47:08.342Z,8.17
2023-05-24T12:49:35.723Z,7.10
2023-05-24T12:52:02.528Z,6.77
2023-05-24T12:54:30.024Z,6.23
2023-05-24T12:56:59.782Z,8.17
2023-05-24T12:59:28.310Z,6.67
2023-05-24T13:01:55.620Z,7.10
2023-05-24T13:04:24.479Z,6.00
2023-05-24T13:06:51.395Z,5.33
2023-05-24T13:09:19.281Z,5.80
2023-05-24T13:11:46.876Z,7.23
2023-05-24T13:14:15.447Z,6.43
2023-05-24T13:16:42.559Z,6.47
2023-05-24T13:19:10.358Z,6.33
2023-05-24T13:21:38.167Z,6.27
2023-05-24T13:24:06.502Z,6.00
2023-05-24T13:26:38.077Z,5.93
2023-05-24T13:31:38.176Z,17.00
2023-05-24T13:34:05.757Z,8.43
2023-05-24T13:36:33.264Z,9.43
2023-05-24T13:41:30.672Z,7.57
2023-05-24T13:43:57.664Z,6.77
2023-05-24T13:46:24.472Z,6.07
2023-05-24T13:48:51.596Z,6.90
2023-05-24T13:51:19.689Z,6.60
2023-05-24T13:53:47.823Z,7.77
2023-05-24T13:56:15.714Z,12.77
2023-05-24T13:58:42.879Z,20.43
2023-05-24T14:01:10.592Z,14.60
2023-05-24T14:03:39.684Z,13.70
2023-05-24T14:06:07.824Z,8.57
2023-05-24T14:08:35.198Z,7.80
2023-05-24T14:11:02.193Z,8.50
2023-05-24T14:15:58.743Z,8.03
2023-05-24T14:18:25.943Z,6.50
2023-05-24T14:20:52.812Z,6.47
2023-05-24T14:23:19.603Z,7.40
2023-05-24T14:25:47.035Z,6.23
2023-05-24T14:28:13.994Z,7.27
2023-05-24T14:30:42.053Z,7.37
2023-05-24T14:33:11.626Z,6.97
2023-05-24T14:35:39.910Z,6.00
2023-05-24T14:38:08.785Z,7.90
2023-05-24T14:40:37.677Z,9.40
2023-05-24T14:43:05.230Z,6.67
2023-05-24T14:45:32.563Z,8.07
2023-05-24T14:48:00.938Z,7.40
2023-05-24T14:50:28.050Z,7.23
2023-05-24T14:52:55.821Z,8.00
2023-05-24T14:55:22.914Z,5.80
2023-05-24T14:57:50.033Z,7.43
2023-05-24T15:00:20.535Z,6.60
2023-05-24T15:02:49.298Z,6.90
2023-05-24T15:05:16.785Z,7.30
2023-05-24T15:07:43.576Z,7.80
2023-05-24T15:10:12.608Z,8.27
2023-05-24T15:12:39.422Z,7.80
2023-05-24T15:15:07.881Z,7.10
2023-05-24T15:17:34.752Z,8.60
2023-05-24T15:20:01.711Z,7.07
2023-05-24T15:22:28.574Z,7.70
2023-05-24T15:24:55.347Z,7.57
2023-05-24T15:27:22.183Z,7.80
2023-05-24T15:29:48.962Z,7.20
2023-05-24T15:32:15.869Z,7.20
2023-05-24T15:34:42.709Z,7.27
2023-05-24T15:37:09.496Z,6.57
2023-05-24T15:39:36.934Z,6.77
2023-05-24T15:42:03.847Z,7.67
2023-05-24T15:44:30.939Z,6.33
2023-05-24T15:46:57.870Z,6.50
2023-05-24T15:49:25.650Z,7.50
2023-05-24T15:54:22.149Z,7.30
2023-05-24T15:56:49.918Z,7.37
2023-05-24T15:59:16.749Z,10.57
2023-05-24T16:01:43.519Z,7.30
2023-05-24T16:04:10.509Z,7.60
2023-05-24T16:06:37.937Z,6.90
2023-05-24T16:09:05.355Z,7.30
2023-05-24T16:11:32.140Z,6.63
2023-05-24T16:13:58.923Z,6.40
2023-05-24T16:16:26.725Z,7.70
2023-05-24T16:18:53.545Z,7.93
2023-05-24T16:21:20.279Z,8.27
2023-05-24T16:23:47.206Z,9.20
2023-05-24T16:26:14.062Z,8.63
2023-05-24T16:28:40.851Z,8.23
2023-05-24T16:31:07.786Z,9.23
2023-05-24T16:33:34.602Z,6.83
2023-05-24T16:36:04.409Z,8.33
2023-05-24T16:38:31.327Z,7.03
2023-05-24T16:40:58.186Z,7.60
2023-05-24T16:43:25.957Z,8.17
2023-05-24T16:45:52.964Z,8.50
2023-05-24T16:48:21.675Z,8.70
2023-05-24T16:50:50.443Z,8.43
2023-05-24T16:53:17.282Z,8.83
2023-05-24T16:55:44.392Z,6.70
2023-05-24T16:58:11.147Z,7.07
2023-05-24T17:00:37.932Z,7.27
2023-05-24T17:03:04.802Z,7.20
2023-05-24T17:05:31.677Z,7.53
2023-05-24T17:07:58.730Z,7.40
2023-05-24T17:10:25.712Z,8.10
2023-05-24T17:12:53.284Z,7.70
2023-05-24T17:15:20.277Z,6.70
2023-05-24T17:17:47.555Z,7.80
2023-05-24T17:20:14.762Z,7.47
2023-05-24T17:22:41.623Z,6.00
2023-05-24T17:25:09.081Z,6.47
2023-05-24T17:27:36.252Z,7.10
2023-05-24T17:30:03.270Z,7.30
2023-05-24T17:32:30.137Z,7.40
2023-05-24T17:34:57.133Z,7.77
2023-05-24T17:37:23.901Z,7.13
2023-05-24T17:39:52.348Z,7.00
2023-05-24T17:42:19.621Z,6.90
2023-05-24T17:44:46.412Z,7.40
2023-05-24T17:47:13.198Z,6.20
2023-05-24T17:49:40.093Z,7.60
2023-05-24T17:52:07.219Z,7.83
2023-05-24T17:54:34.186Z,7.50
2023-05-24T17:57:01.798Z,7.60
2023-05-24T17:59:28.752Z,7.50
2023-05-24T18:01:55.493Z,8.40
2023-05-24T18:04:22.346Z,8.10
2023-05-24T18:06:49.104Z,8.77
2023-05-24T18:09:16.968Z,7.70
2023-05-24T18:11:43.713Z,7.00
2023-05-24T18:14:10.830Z,7.10
2023-05-24T18:16:37.793Z,8.23
2023-05-24T18:19:04.663Z,6.70
2023-05-24T18:21:32.493Z,6.33
2023-05-24T18:23:59.271Z,15.23
2023-05-24T18:26:26.281Z,6.73
2023-05-24T18:28:53.032Z,8.20
2023-05-24T18:31:20.520Z,7.00
2023-05-24T18:33:47.411Z,6.00
2023-05-24T18:36:14.371Z,7.33
2023-05-24T18:38:41.336Z,6.93
2023-05-24T18:41:12.163Z,6.73
2023-05-24T18:43:39.425Z,5.83
2023-05-24T18:46:06.373Z,7.10
2023-05-24T18:48:33.099Z,6.80
2023-05-24T18:50:59.873Z,7.20
2023-05-24T18:53:26.757Z,7.50
2023-05-24T18:55:53.531Z,6.27
2023-05-24T18:58:22.573Z,6.57
2023-05-24T19:00:50.600Z,5.70
2023-05-24T19:03:17.606Z,6.67
2023-05-24T19:05:44.749Z,6.57
2023-05-24T19:08:11.529Z,7.07
2023-05-24T19:10:38.284Z,7.17
2023-05-24T19:13:06.498Z,6.80
2023-05-24T19:15:35.868Z,7.40
2023-05-24T19:18:03.417Z,6.70
2023-05-24T19:20:30.238Z,8.63
2023-05-24T19:22:57.167Z,6.70
2023-05-24T19:25:23.881Z,6.00
2023-05-24T19:30:20.574Z,7.30
2023-05-24T19:32:47.464Z,6.77
2023-05-24T19:35:14.363Z,6.53
2023-05-24T19:37:41.170Z,6.80
2023-05-24T19:40:08.452Z,7.57
2023-05-24T19:42:35.268Z,6.30
2023-05-24T19:45:02.123Z,6.60
2023-05-24T19:47:28.909Z,7.90
2023-05-24T19:49:55.792Z,7.33
2023-05-24T19:52:22.607Z,6.67
2023-05-24T19:54:49.529Z,6.50
2023-05-24T19:57:16.325Z,6.70
2023-05-24T19:59:43.220Z,8.03
2023-05-24T20:02:09.984Z,8.13
2023-05-24T20:04:41.834Z,8.10
2023-05-24T20:07:08.909Z,8.13
2023-05-24T20:09:36.014Z,6.90
2023-05-24T20:12:02.946Z,8.00
2023-05-24T20:14:31.677Z,7.80
2023-05-24T20:16:59.184Z,8.00
2023-05-24T20:19:27.160Z,6.40
2023-05-24T20:21:54.093Z,7.87
2023-05-24T20:24:20.941Z,7.60
2023-05-24T20:26:47.784Z,7.40
2023-05-24T20:29:14.610Z,6.97
2023-05-24T20:31:41.520Z,6.80
2023-05-24T20:34:08.493Z,7.03
2023-05-24T20:36:36.416Z,5.93
2023-05-24T20:39:03.270Z,8.40
2023-05-24T20:41:30.609Z,6.20
2023-05-24T20:43:57.471Z,6.63
2023-05-24T20:46:24.431Z,6.40
2023-05-24T20:48:51.647Z,6.57
2023-05-24T20:51:19.397Z,6.93
2023-05-24T20:53:46.850Z,5.90
2023-05-24T20:56:13.651Z,6.73
2023-05-24T20:58:41.458Z,6.73
2023-05-24T21:01:08.731Z,6.13
2023-05-24T21:03:35.986Z,6.40
2023-05-24T21:06:03.001Z,5.30
2023-05-24T21:08:29.853Z,5.73
2023-05-24T21:10:56.957Z,5.23
2023-05-24T21:13:25.461Z,6.63
2023-05-24T21:15:52.389Z,6.03
2023-05-24T21:18:19.120Z,5.30
2023-05-24T21:20:46.229Z,5.73
2023-05-24T21:23:13.053Z,5.80
2023-05-24T21:25:39.934Z,5.40
2023-05-24T21:28:06.701Z,5.57
2023-05-24T21:30:33.472Z,5.40
2023-05-24T21:33:00.333Z,4.77
2023-05-24T21:35:27.886Z,4.60
2023-05-24T21:37:54.724Z,4.83
2023-05-24T21:40:21.579Z,6.20
2023-05-24T21:42:48.338Z,5.50
2023-05-24T21:45:15.333Z,4.97
2023-05-24T21:47:43.084Z,4.90
2023-05-24T21:50:10.202Z,5.30
2023-05-24T21:52:37.195Z,4.60
2023-05-24T21:55:04.231Z,5.80
2023-05-24T21:57:30.967Z,4.60
2023-05-24T21:59:57.798Z,4.80
2023-05-24T22:02:24.547Z,5.83
2023-05-24T22:04:51.371Z,4.50
2023-05-24T22:07:18.553Z,5.10
2023-05-24T22:09:45.834Z,4.67
2023-05-24T22:12:12.635Z,5.17
2023-05-24T22:14:39.375Z,4.70
2023-05-24T22:17:06.558Z,4.33
2023-05-24T22:22:03.278Z,4.50
2023-05-24T22:24:30.130Z,4.10
2023-05-24T22:26:57.016Z,3.83
2023-05-24T22:29:23.800Z,4.73
2023-05-24T22:31:50.718Z,4.10
2023-05-24T22:34:27.355Z,3.30
2023-05-24T22:36:54.560Z,4.30
2023-05-24T22:39:21.775Z,4.40
2023-05-24T22:41:48.734Z,3.80
2023-05-24T22:44:15.898Z,4.23
2023-05-24T22:46:42.876Z,4.30
2023-05-24T22:49:13.124Z,4.53
2023-05-24T22:51:44.368Z,3.83
2023-05-24T22:54:11.774Z,4.57
2023-05-24T22:56:39.121Z,3.80
2023-05-24T22:59:06.755Z,4.60
2023-05-24T23:01:33.865Z,4.43
2023-05-24T23:04:15.729Z,4.30
2023-05-24T23:06:46.550Z,3.80
2023-05-24T23:09:13.378Z,4.33
2023-05-24T23:11:40.207Z,4.07
2023-05-24T23:14:08.991Z,4.40
2023-05-24T23:16:45.493Z,3.80
2023-05-24T23:19:18.096Z,4.70
2023-05-24T23:21:45.018Z,4.63
2023-05-24T23:24:14.473Z,4.30
2023-05-24T23:26:44.136Z,3.80
2023-05-24T23:29:11.349Z,4.50
2023-05-24T23:31:38.227Z,4.33
2023-05-24T23:34:05.808Z,4.50
2023-05-24T23:36:32.672Z,3.80
2023-05-24T23:39:03.389Z,3.90
2023-05-24T23:41:30.125Z,4.67
2023-05-24T23:43:56.881Z,5.07
2023-05-24T23:46:23.834Z,4.03
2023-05-24T23:48:50.843Z,5.07
2023-05-24T23:51:19.456Z,3.30
2023-05-24T23:53:46.322Z,4.40
2023-05-24T23:56:13.065Z,4.10
2023-05-24T23:58:42.010Z,4.00
